Time;durP1;ratioP1;P1;durP2;ratioP2;P2;SDS_P1;SDS_P2;PMS_P1;PMS_P2;Temp;Humidity;BMP_temperature;BMP_pressure;BME280_temperature;BME280_humidity;BME280_pressure;Samples;Min_cycle;Max_cycle;Signal;HPM_P1;HPM_P2
2023/12/23 00:01:22;;;;;;;0.40;0.20;;;6.90;99.90;;;;;;4915567;29;20414;-66
2023/12/23 00:03:49;;;;;;;0.30;0.20;;;6.90;99.90;;;;;;4917040;29;20165;-67
2023/12/23 00:06:20;;;;;;;0.32;0.20;;;6.90;99.90;;;;;;4917031;29;20115;-67
2023/12/23 00:08:52;;;;;;;0.30;0.25;;;6.80;99.90;;;;;;4915855;29;20043;-67
2023/12/23 00:11:19;;;;;;;0.20;0.20;;;6.90;99.90;;;;;;4916927;29;20047;-67
2023/12/23 00:13:51;;;;;;;0.50;0.20;;;6.90;99.90;;;;;;4897816;29;20056;-67
2023/12/23 00:16:24;;;;;;;1.33;0.20;;;6.90;99.90;;;;;;4916845;29;20040;-67
2023/12/23 00:18:56;;;;;;;0.82;0.52;;;6.90;99.90;;;;;;4912632;29;20045;-67
2023/12/23 00:21:28;;;;;;;0.82;0.22;;;6.90;99.90;;;;;;4916866;29;20040;-67
2023/12/23 00:24:00;;;;;;;0.43;0.20;;;6.90;99.90;;;;;;4915466;29;20417;-67
2023/12/23 00:26:32;;;;;;;1.50;0.30;;;6.90;99.90;;;;;;4913667;29;20064;-67
2023/12/23 00:29:03;;;;;;;0.63;0.22;;;6.90;99.90;;;;;;4915463;29;20052;-67
2023/12/23 00:31:35;;;;;;;1.08;0.22;;;6.90;99.90;;;;;;4913809;29;20051;-67
2023/12/23 00:34:07;;;;;;;0.20;0.20;;;6.90;99.90;;;;;;4914207;29;20075;-67
2023/12/23 00:36:39;;;;;;;0.50;0.20;;;6.90;99.90;;;;;;4925052;29;20053;-67
2023/12/23 00:39:12;;;;;;;0.40;0.20;;;7.00;99.90;;;;;;4916545;29;20040;-66
2023/12/23 00:41:44;;;;;;;1.67;0.20;;;7.00;99.90;;;;;;4914202;29;20048;-67
2023/12/23 00:44:11;;;;;;;2.72;0.52;;;7.00;99.90;;;;;;4901887;29;20135;-67
2023/12/23 00:46:44;;;;;;;0.73;0.30;;;7.00;99.90;;;;;;4914007;29;20067;-67
2023/12/23 00:49:15;;;;;;;0.28;0.25;;;7.00;99.90;;;;;;4914322;29;20063;-67
2023/12/23 00:51:47;;;;;;;0.45;0.30;;;6.90;99.90;;;;;;4914980;29;20047;-67
2023/12/23 00:54:19;;;;;;;0.22;0.20;;;6.90;99.90;;;;;;4912730;29;20044;-67
2023/12/23 00:56:51;;;;;;;0.22;0.13;;;6.90;99.90;;;;;;4914005;29;20056;-67
2023/12/23 00:59:23;;;;;;;0.20;0.20;;;6.90;99.90;;;;;;4892039;29;20040;-67
2023/12/23 01:01:50;;;;;;;0.43;0.32;;;6.90;99.90;;;;;;4916046;29;20066;-67
2023/12/23 01:04:22;;;;;;;0.80;0.20;;;6.90;99.90;;;;;;4908797;29;20438;-67
2023/12/23 01:06:54;;;;;;;0.60;0.20;;;6.90;99.90;;;;;;4914454;29;20060;-67
2023/12/23 01:09:26;;;;;;;0.80;0.20;;;6.90;99.90;;;;;;4927623;29;20166;-67
2023/12/23 01:11:58;;;;;;;0.13;0.13;;;6.90;99.90;;;;;;4915929;29;20052;-67
2023/12/23 01:14:29;;;;;;;1.80;0.40;;;6.80;99.90;;;;;;4899007;29;20047;-67
2023/12/23 01:16:56;;;;;;;0.77;0.22;;;6.80;99.90;;;;;;4928339;29;20501;-67
2023/12/23 01:19:28;;;;;;;1.20;0.30;;;6.70;99.90;;;;;;4914417;29;20044;-67
2023/12/23 01:22:01;;;;;;;1.65;0.30;;;6.80;99.90;;;;;;4927790;29;20079;-67
2023/12/23 01:24:33;;;;;;;0.40;0.27;;;6.70;99.90;;;;;;4914179;29;20054;-67
2023/12/23 01:27:05;;;;;;;0.43;0.20;;;6.70;99.90;;;;;;4899534;29;20099;-67
2023/12/23 01:29:37;;;;;;;0.60;0.20;;;6.60;99.90;;;;;;4905255;29;20391;-67
2023/12/23 01:32:09;;;;;;;0.55;0.20;;;6.60;99.90;;;;;;4910118;29;20151;-67
2023/12/23 01:34:36;;;;;;;0.35;0.10;;;6.60;99.90;;;;;;4923497;29;20041;-67
2023/12/23 01:37:08;;;;;;;0.20;0.15;;;6.60;99.90;;;;;;4882998;29;20074;-67
2023/12/23 01:39:40;;;;;;;0.47;0.30;;;6.60;99.90;;;;;;4913860;29;20044;-67
2023/12/23 01:42:12;;;;;;;0.90;0.40;;;6.50;99.90;;;;;;4909753;29;20053;-67
2023/12/23 01:44:44;;;;;;;0.40;0.20;;;6.50;99.90;;;;;;4898727;29;20551;-67
2023/12/23 01:47:11;;;;;;;0.20;0.20;;;6.50;99.90;;;;;;4924596;29;20036;-67
2023/12/23 01:49:43;;;;;;;0.52;0.30;;;6.50;99.90;;;;;;4914098;29;20052;-67
2023/12/23 01:52:16;;;;;;;0.20;0.20;;;6.50;99.90;;;;;;4913943;29;20513;-67
2023/12/23 01:54:43;;;;;;;1.67;0.40;;;6.40;99.90;;;;;;4898068;29;20589;-67
2023/12/23 01:57:14;;;;;;;0.30;0.20;;;6.50;99.90;;;;;;4913471;29;20049;-66
2023/12/23 01:59:48;;;;;;;0.25;0.20;;;6.50;99.90;;;;;;4929062;29;20051;-67
2023/12/23 02:02:17;;;;;;;0.30;0.20;;;6.50;99.90;;;;;;4927036;29;20040;-67
2023/12/23 02:04:49;;;;;;;1.63;0.40;;;6.50;99.90;;;;;;4914682;29;20049;-67
2023/12/23 02:07:21;;;;;;;0.77;0.70;;;6.50;99.90;;;;;;4896930;29;20056;-67
2023/12/23 02:09:53;;;;;;;0.28;0.20;;;6.40;99.90;;;;;;4912877;29;20039;-67
2023/12/23 02:12:39;;;;;;;1.35;0.20;;;6.50;99.90;;;;;;4894729;29;20425;-67
2023/12/23 02:15:14;;;;;;;0.10;0.10;;;6.40;99.90;;;;;;4914078;29;20698;-67
2023/12/23 02:17:46;;;;;;;0.30;0.20;;;6.40;99.90;;;;;;4912948;29;20048;-67
2023/12/23 02:20:18;;;;;;;1.52;0.30;;;6.40;99.90;;;;;;4913049;29;20047;-67
2023/12/23 02:22:49;;;;;;;0.20;0.20;;;6.30;99.90;;;;;;4904671;29;20059;-67
2023/12/23 02:25:22;;;;;;;0.22;0.20;;;6.30;99.90;;;;;;4943647;29;20055;-67
2023/12/23 02:27:58;;;;;;;0.30;0.15;;;6.40;99.90;;;;;;4923587;29;20130;-67
2023/12/23 02:30:26;;;;;;;0.20;0.20;;;6.40;99.90;;;;;;4897764;29;20048;-67
2023/12/23 02:32:58;;;;;;;0.43;0.20;;;6.30;99.90;;;;;;4904871;29;20063;-68
2023/12/23 02:35:30;;;;;;;0.32;0.20;;;6.30;99.90;;;;;;4912081;29;20047;-67
2023/12/23 02:38:02;;;;;;;0.35;0.10;;;6.30;99.90;;;;;;4893732;29;20141;-67
2023/12/23 02:40:36;;;;;;;;;;;6.30;99.90;;;;;;4913225;29;20036;-67
2023/12/23 02:43:08;;;;;;;0.17;0.15;;;6.30;99.90;;;;;;4912095;29;20388;-67
2023/12/23 02:45:40;;;;;;;0.20;0.15;;;6.20;99.90;;;;;;4913525;29;20040;-67
2023/12/23 02:48:12;;;;;;;1.48;0.20;;;6.20;99.90;;;;;;4915883;29;20064;-67
2023/12/23 02:50:44;;;;;;;0.50;0.20;;;6.20;99.90;;;;;;4912279;29;20056;-67
2023/12/23 02:53:16;;;;;;;0.20;0.20;;;6.10;99.90;;;;;;4908582;29;20059;-67
2023/12/23 02:55:49;;;;;;;0.50;0.20;;;6.10;99.90;;;;;;4912646;29;20050;-67
2023/12/23 02:58:21;;;;;;;0.98;0.28;;;6.10;99.90;;;;;;4908804;29;20045;-67
2023/12/23 03:00:48;;;;;;;0.40;0.20;;;6.10;99.90;;;;;;4912560;29;20055;-67
2023/12/23 03:03:20;;;;;;;0.15;0.15;;;6.10;99.90;;;;;;4911210;29;20524;-67
2023/12/23 03:05:55;;;;;;;0.30;0.20;;;6.20;99.90;;;;;;4900313;29;20577;-67
2023/12/23 03:08:27;;;;;;;0.40;0.20;;;6.20;99.90;;;;;;4891324;29;20048;-67
2023/12/23 03:10:59;;;;;;;0.82;0.15;;;6.20;99.90;;;;;;4905380;29;20796;-67
2023/12/23 03:13:31;;;;;;;0.17;0.10;;;6.20;99.90;;;;;;4904166;29;20046;-67
2023/12/23 03:16:13;;;;;;;0.10;0.10;;;6.20;99.90;;;;;;4916209;29;20506;-67
2023/12/23 03:18:45;;;;;;;0.45;0.20;;;6.20;99.90;;;;;;4915284;29;20525;-67
2023/12/23 03:21:22;;;;;;;0.28;0.20;;;6.20;99.90;;;;;;4901252;29;20075;-67
2023/12/23 03:23:55;;;;;;;0.75;0.22;;;6.20;99.90;;;;;;4917388;29;20064;-67
2023/12/23 03:26:28;;;;;;;0.25;0.20;;;6.10;99.90;;;;;;4900929;29;20051;-67
2023/12/23 03:29:00;;;;;;;0.17;0.17;;;6.10;99.90;;;;;;4914305;29;20059;-67
2023/12/23 03:31:32;;;;;;;0.63;0.20;;;6.20;99.90;;;;;;4915336;29;20058;-67
2023/12/23 03:34:00;;;;;;;0.63;0.20;;;6.10;99.90;;;;;;4900285;29;20048;-67
2023/12/23 03:36:33;;;;;;;0.10;0.10;;;6.10;99.90;;;;;;4915173;29;20540;-67
2023/12/23 03:39:06;;;;;;;0.30;0.17;;;6.10;99.90;;;;;;4915742;29;20129;-67
2023/12/23 03:41:37;;;;;;;1.17;0.30;;;6.10;99.90;;;;;;4915403;29;20044;-67
2023/12/23 03:44:09;;;;;;;0.32;0.20;;;6.10;99.90;;;;;;4913791;29;20494;-67
2023/12/23 03:46:36;;;;;;;0.10;0.10;;;6.10;99.90;;;;;;4903205;29;20040;-67
2023/12/23 03:49:08;;;;;;;0.40;0.13;;;6.10;99.90;;;;;;4915775;29;20055;-67
2023/12/23 03:51:40;;;;;;;0.10;0.10;;;6.10;99.90;;;;;;4916153;29;20055;-67
2023/12/23 03:54:11;;;;;;;0.20;0.20;;;6.00;99.90;;;;;;4899893;29;20047;-67
2023/12/23 03:56:43;;;;;;;0.28;0.17;;;6.00;99.90;;;;;;4909096;29;20053;-67
2023/12/23 03:59:15;;;;;;;0.68;0.20;;;6.00;99.90;;;;;;4912642;29;20045;-67
2023/12/23 04:01:47;;;;;;;0.32;0.20;;;6.10;99.90;;;;;;4900415;29;20043;-67
2023/12/23 04:04:20;;;;;;;0.47;0.10;;;6.10;99.90;;;;;;4906862;29;20466;-67
2023/12/23 04:06:52;;;;;;;0.22;0.17;;;6.00;99.90;;;;;;4908343;29;20092;-67
2023/12/23 04:09:24;;;;;;;0.40;0.17;;;6.10;99.90;;;;;;4915095;29;20052;-67
2023/12/23 04:11:56;;;;;;;0.47;0.20;;;6.00;99.90;;;;;;4915276;29;20075;-67
2023/12/23 04:14:28;;;;;;;0.30;0.10;;;6.00;99.90;;;;;;4915307;29;20123;-67
2023/12/23 04:17:00;;;;;;;0.50;0.20;;;6.00;99.90;;;;;;4886227;29;20053;-67
2023/12/23 04:19:32;;;;;;;0.13;0.10;;;6.00;99.90;;;;;;4915609;29;20422;-67
2023/12/23 04:22:04;;;;;;;0.10;0.10;;;6.00;99.90;;;;;;4901407;29;20052;-67
2023/12/23 04:24:35;;;;;;;0.20;0.10;;;6.00;99.90;;;;;;4899951;29;20060;-67
2023/12/23 04:27:08;;;;;;;0.20;0.20;;;6.00;99.90;;;;;;4906284;29;20055;-67
2023/12/23 04:29:40;;;;;;;0.13;0.10;;;6.10;99.90;;;;;;4910329;29;20095;-67
2023/12/23 04:32:12;;;;;;;0.10;0.10;;;6.10;99.90;;;;;;4890106;29;20056;-68
2023/12/23 04:34:38;;;;;;;0.47;0.20;;;6.00;99.90;;;;;;4905678;29;20131;-67
2023/12/23 04:37:06;;;;;;;0.40;0.20;;;6.00;99.90;;;;;;4904011;29;20808;-67
2023/12/23 04:39:33;;;;;;;0.30;0.20;;;6.00;99.90;;;;;;4925286;29;20664;-67
2023/12/23 04:42:05;;;;;;;0.65;0.30;;;6.00;99.90;;;;;;4900278;29;20825;-67
2023/12/23 04:44:36;;;;;;;0.63;0.30;;;6.00;99.90;;;;;;4899592;29;20044;-67
2023/12/23 04:47:08;;;;;;;1.00;0.30;;;6.00;99.90;;;;;;4898886;29;20803;-67
2023/12/23 04:49:40;;;;;;;0.35;0.20;;;6.00;99.90;;;;;;4900620;29;20514;-67
2023/12/23 04:52:12;;;;;;;0.52;0.28;;;6.00;99.90;;;;;;4914982;29;20060;-67
2023/12/23 04:54:43;;;;;;;1.65;0.20;;;6.00;99.90;;;;;;4915073;29;20116;-67
2023/12/23 04:57:16;;;;;;;0.65;0.20;;;6.00;99.90;;;;;;4907162;29;20048;-67
2023/12/23 04:59:47;;;;;;;0.57;0.20;;;6.00;99.90;;;;;;4905553;29;20426;-67
2023/12/23 05:02:19;;;;;;;1.48;0.30;;;6.00;99.90;;;;;;4913119;29;20534;-67
2023/12/23 05:04:52;;;;;;;0.30;0.20;;;6.00;99.90;;;;;;4914848;29;20560;-67
2023/12/23 05:07:24;;;;;;;0.93;0.20;;;6.00;99.90;;;;;;4901623;29;20127;-67
2023/12/23 05:09:57;;;;;;;0.80;0.28;;;6.00;99.90;;;;;;4899765;29;20066;-67
2023/12/23 05:12:23;;;;;;;0.30;0.20;;;6.00;99.90;;;;;;4898134;29;20041;-67
2023/12/23 05:14:55;;;;;;;0.55;0.20;;;6.00;99.90;;;;;;4914524;29;20072;-67
2023/12/23 05:17:27;;;;;;;0.22;0.20;;;6.10;99.90;;;;;;4914609;29;20406;-67
2023/12/23 05:19:59;;;;;;;0.75;0.20;;;6.00;99.90;;;;;;4899517;29;20072;-67
2023/12/23 05:22:31;;;;;;;0.10;0.10;;;6.00;99.90;;;;;;4914468;29;20441;-67
2023/12/23 05:25:04;;;;;;;0.95;0.30;;;6.00;99.90;;;;;;4897959;29;20064;-67
2023/12/23 05:27:36;;;;;;;0.80;0.22;;;6.00;99.90;;;;;;4913795;29;20057;-67
2023/12/23 05:30:03;;;;;;;0.15;0.15;;;6.00;99.90;;;;;;4926744;29;20068;-67
2023/12/23 05:32:36;;;;;;;0.30;0.20;;;6.00;99.90;;;;;;4926846;29;20044;-67
2023/12/23 05:35:02;;;;;;;0.77;0.20;;;6.00;99.90;;;;;;4912440;29;20128;-67
2023/12/23 05:37:34;;;;;;;1.17;0.20;;;6.00;99.90;;;;;;4900461;29;20051;-68
2023/12/23 05:40:07;;;;;;;0.98;0.20;;;6.00;99.90;;;;;;4899033;29;20048;-67
2023/12/23 05:42:39;;;;;;;2.55;0.90;;;6.00;99.90;;;;;;4915480;29;20032;-67
2023/12/23 05:45:06;;;;;;;0.93;0.25;;;6.00;99.90;;;;;;4904149;29;20075;-67
2023/12/23 05:47:38;;;;;;;0.43;0.30;;;6.00;99.90;;;;;;4914717;29;20497;-67
2023/12/23 05:50:10;;;;;;;0.50;0.20;;;6.00;99.90;;;;;;4914169;29;20050;-67
2023/12/23 05:52:44;;;;;;;0.20;0.20;;;6.00;99.90;;;;;;4913777;29;20416;-67
2023/12/23 05:55:16;;;;;;;0.20;0.17;;;6.00;99.90;;;;;;4913943;29;20050;-67
2023/12/23 05:57:48;;;;;;;0.30;0.28;;;6.00;99.90;;;;;;4896916;29;20044;-67
2023/12/23 06:00:20;;;;;;;0.93;0.30;;;5.90;99.90;;;;;;4898574;29;20051;-67
2023/12/23 06:02:52;;;;;;;0.45;0.30;;;5.90;99.90;;;;;;4915099;29;20044;-67
2023/12/23 06:05:24;;;;;;;0.50;0.32;;;5.90;99.90;;;;;;4913515;29;20044;-67
2023/12/23 06:07:57;;;;;;;0.40;0.30;;;5.90;99.90;;;;;;4913789;29;20058;-67
2023/12/23 06:10:28;;;;;;;1.00;0.30;;;5.80;99.90;;;;;;4913633;29;20052;-67
2023/12/23 06:13:00;;;;;;;0.95;0.30;;;5.80;99.90;;;;;;4914102;29;20056;-67
2023/12/23 06:15:32;;;;;;;0.77;0.40;;;5.90;99.90;;;;;;4913344;29;20044;-68
2023/12/23 06:18:05;;;;;;;0.40;0.20;;;5.90;99.90;;;;;;4914819;29;20071;-67
2023/12/23 06:20:37;;;;;;;1.63;0.40;;;5.90;99.90;;;;;;4914962;29;20040;-68
2023/12/23 06:23:09;;;;;;;0.98;0.30;;;5.90;99.90;;;;;;4914802;29;20079;-67
2023/12/23 06:25:41;;;;;;;1.23;0.30;;;5.90;99.90;;;;;;4914446;29;20044;-68
2023/12/23 06:28:13;;;;;;;0.47;0.30;;;5.90;99.90;;;;;;4914740;29;20131;-68
2023/12/23 06:30:40;;;;;;;1.25;0.20;;;5.90;99.90;;;;;;4899860;29;20041;-67
2023/12/23 06:33:11;;;;;;;0.80;0.35;;;5.90;99.90;;;;;;4914464;29;20425;-68
2023/12/23 06:35:43;;;;;;;0.20;0.20;;;5.90;99.90;;;;;;4907044;29;20513;-67
2023/12/23 06:38:16;;;;;;;1.23;0.15;;;5.90;99.90;;;;;;4908405;29;20050;-67
2023/12/23 06:40:48;;;;;;;1.00;0.32;;;6.00;99.90;;;;;;4913321;29;20104;-68
2023/12/23 06:43:15;;;;;;;1.70;0.20;;;6.00;99.90;;;;;;4913620;29;20040;-68
2023/12/23 06:45:47;;;;;;;0.32;0.30;;;6.00;99.90;;;;;;4908630;29;20067;-69
2023/12/23 06:48:19;;;;;;;1.48;0.30;;;6.00;99.90;;;;;;4923449;29;20139;-68
2023/12/23 06:50:46;;;;;;;2.60;0.45;;;6.10;99.90;;;;;;4913195;29;20050;-67
2023/12/23 06:53:17;;;;;;;0.20;0.20;;;6.10;99.90;;;;;;4914657;29;20047;-67
2023/12/23 06:55:44;;;;;;;1.33;0.20;;;6.10;99.90;;;;;;4913841;29;20520;-67
2023/12/23 06:58:16;;;;;;;5.30;1.17;;;6.10;99.90;;;;;;4912688;29;20057;-67
2023/12/23 07:00:48;;;;;;;0.85;0.50;;;6.10;99.90;;;;;;4914287;29;20084;-67
2023/12/23 07:03:21;;;;;;;0.57;0.50;;;6.10;99.90;;;;;;4914605;29;20079;-68
2023/12/23 07:05:52;;;;;;;0.75;0.30;;;6.20;99.90;;;;;;4912995;29;20050;-68
2023/12/23 07:08:24;;;;;;;0.88;0.22;;;6.10;99.90;;;;;;4914345;29;20058;-68
2023/12/23 07:10:56;;;;;;;0.93;0.30;;;6.10;99.90;;;;;;4914441;29;20063;-67
2023/12/23 07:13:29;;;;;;;1.20;0.60;;;6.10;99.90;;;;;;4913150;29;20070;-67
2023/12/23 07:15:55;;;;;;;2.28;0.30;;;6.10;99.90;;;;;;4901427;29;20058;-67
2023/12/23 07:18:27;;;;;;;1.17;0.20;;;6.10;99.90;;;;;;4914154;29;20042;-67
2023/12/23 07:21:00;;;;;;;0.38;0.32;;;6.10;99.90;;;;;;4900980;29;20407;-68
2023/12/23 07:23:32;;;;;;;0.20;0.20;;;6.10;99.90;;;;;;4914381;29;20054;-67
2023/12/23 07:26:05;;;;;;;0.10;0.10;;;6.20;99.90;;;;;;4911605;29;20040;-67
2023/12/23 07:28:37;;;;;;;0.35;0.20;;;6.20;99.90;;;;;;4913091;29;20040;-67
2023/12/23 07:31:09;;;;;;;0.85;0.30;;;6.20;99.90;;;;;;4914106;29;20056;-67
2023/12/23 07:33:40;;;;;;;0.32;0.20;;;6.20;99.90;;;;;;4914181;29;20063;-67
2023/12/23 07:36:12;;;;;;;0.40;0.20;;;6.30;99.90;;;;;;4914007;29;20424;-67
2023/12/23 07:38:39;;;;;;;0.68;0.22;;;6.30;99.90;;;;;;4894075;29;20477;-67
2023/12/23 07:41:11;;;;;;;0.10;0.10;;;6.30;99.90;;;;;;4914143;29;20067;-67
2023/12/23 07:43:43;;;;;;;0.20;0.20;;;6.30;99.90;;;;;;4914146;29;20047;-67
2023/12/23 07:46:15;;;;;;;0.52;0.30;;;6.30;99.90;;;;;;4913571;29;20063;-67
2023/12/23 07:48:42;;;;;;;0.20;0.20;;;6.30;99.90;;;;;;4898735;29;20545;-67
2023/12/23 07:51:14;;;;;;;0.20;0.20;;;6.30;99.90;;;;;;4914045;29;20051;-67
2023/12/23 07:53:46;;;;;;;2.85;0.20;;;6.40;99.90;;;;;;4886640;29;20120;-67
2023/12/23 07:56:18;;;;;;;0.52;0.20;;;6.40;99.90;;;;;;4916112;29;20127;-67
2023/12/23 07:58:45;;;;;;;0.20;0.10;;;6.40;99.90;;;;;;4915810;29;20048;-67
2023/12/23 08:01:17;;;;;;;0.30;0.20;;;6.40;99.90;;;;;;4917317;29;20136;-67
2023/12/23 08:03:43;;;;;;;0.20;0.20;;;6.30;99.90;;;;;;4917165;29;20036;-67
2023/12/23 08:06:16;;;;;;;0.40;0.20;;;6.30;99.90;;;;;;4930083;29;20052;-67
2023/12/23 08:08:48;;;;;;;0.10;0.10;;;6.40;99.90;;;;;;4915996;29;20055;-67
2023/12/23 08:11:22;;;;;;;0.43;0.20;;;6.40;99.90;;;;;;4916656;29;20051;-67
2023/12/23 08:13:54;;;;;;;0.10;0.10;;;6.40;99.90;;;;;;4916841;29;20052;-67
2023/12/23 08:16:20;;;;;;;0.20;0.20;;;6.40;99.90;;;;;;4913389;29;20062;-67
2023/12/23 08:18:47;;;;;;;0.10;0.10;;;6.40;99.90;;;;;;4916952;29;20143;-67
2023/12/23 08:21:14;;;;;;;0.52;0.10;;;6.40;99.90;;;;;;4896948;29;20474;-67
2023/12/23 08:23:46;;;;;;;0.20;0.20;;;6.40;99.90;;;;;;4915266;29;20681;-67
2023/12/23 08:26:18;;;;;;;0.43;0.20;;;6.50;99.90;;;;;;4915318;29;20056;-67
2023/12/23 08:28:50;;;;;;;0.28;0.25;;;6.50;99.90;;;;;;4916959;29;20056;-67
2023/12/23 08:31:22;;;;;;;0.30;0.20;;;6.50;99.90;;;;;;4916992;29;20052;-67
2023/12/23 08:33:54;;;;;;;3.70;1.27;;;6.50;99.90;;;;;;4916671;29;20050;-67
2023/12/23 08:36:26;;;;;;;0.90;0.20;;;6.50;99.90;;;;;;4916572;29;20437;-67
2023/12/23 08:38:57;;;;;;;0.43;0.40;;;6.50;99.90;;;;;;4916823;29;20041;-67
2023/12/23 08:41:29;;;;;;;0.45;0.20;;;6.50;99.90;;;;;;4916777;29;20589;-67
2023/12/23 08:44:02;;;;;;;0.28;0.20;;;6.60;99.90;;;;;;4913055;29;20056;-67
2023/12/23 08:46:30;;;;;;;0.60;0.20;;;6.60;99.90;;;;;;4921558;29;20044;-67
2023/12/23 08:49:01;;;;;;;0.57;0.30;;;6.60;99.90;;;;;;4915317;29;20040;-67
2023/12/23 08:51:36;;;;;;;1.90;0.30;;;6.60;99.90;;;;;;4920381;29;20084;-67
2023/12/23 08:54:08;;;;;;;0.40;0.22;;;6.60;99.90;;;;;;4916353;29;20050;-67
2023/12/23 08:56:39;;;;;;;0.40;0.30;;;6.70;99.90;;;;;;4899860;29;20051;-67
2023/12/23 08:59:11;;;;;;;3.95;1.40;;;6.60;99.90;;;;;;4909871;29;20047;-67
2023/12/23 09:01:44;;;;;;;0.50;0.25;;;6.70;99.90;;;;;;4915049;29;20058;-67
2023/12/23 09:04:11;;;;;;;0.63;0.20;;;6.60;99.90;;;;;;4916182;29;20142;-67
2023/12/23 09:06:38;;;;;;;1.75;0.20;;;6.60;99.90;;;;;;4915012;29;20732;-67
2023/12/23 09:09:09;;;;;;;0.40;0.32;;;6.60;99.90;;;;;;4916052;29;20060;-67
2023/12/23 09:11:43;;;;;;;2.50;0.60;;;6.60;99.90;;;;;;4916019;29;20059;-67
2023/12/23 09:14:15;;;;;;;0.20;0.20;;;6.60;99.90;;;;;;4913888;29;20126;-67
2023/12/23 09:16:42;;;;;;;0.60;0.22;;;6.60;99.90;;;;;;4909678;29;20050;-67
2023/12/23 09:19:13;;;;;;;5.47;2.00;;;6.60;99.90;;;;;;4909580;29;20048;-67
2023/12/23 09:21:45;;;;;;;1.50;0.30;;;6.60;99.90;;;;;;4914822;29;20044;-67
2023/12/23 09:24:17;;;;;;;0.55;0.30;;;6.60;99.90;;;;;;4913942;29;20488;-67
2023/12/23 09:26:44;;;;;;;0.82;0.40;;;6.60;99.90;;;;;;4915652;29;20044;-67
2023/12/23 09:29:16;;;;;;;0.70;0.20;;;6.60;99.90;;;;;;4915619;29;20413;-67
2023/12/23 09:31:48;;;;;;;0.35;0.20;;;6.60;99.90;;;;;;4915683;29;20521;-67
2023/12/23 09:34:22;;;;;;;0.20;0.20;;;6.60;99.90;;;;;;4915730;29;20394;-67
2023/12/23 09:36:55;;;;;;;0.60;0.20;;;6.60;99.90;;;;;;4914122;29;20491;-67
2023/12/23 09:39:27;;;;;;;0.70;0.10;;;6.60;99.90;;;;;;4912152;29;20127;-67
2023/12/23 09:41:54;;;;;;;0.43;0.20;;;6.60;99.90;;;;;;4915527;29;20107;-67
2023/12/23 09:44:28;;;;;;;3.92;1.25;;;6.70;99.90;;;;;;4914416;29;20048;-67
2023/12/23 09:47:01;;;;;;;0.30;0.20;;;6.70;99.90;;;;;;4915384;29;20604;-67
2023/12/23 09:49:36;;;;;;;0.30;0.20;;;6.70;99.90;;;;;;4914414;29;20540;-67
2023/12/23 09:52:11;;;;;;;8.07;3.05;;;6.60;99.90;;;;;;4912752;29;20055;-67
2023/12/23 09:54:48;;;;;;;0.13;0.13;;;6.60;99.90;;;;;;4906776;29;20422;-67
2023/12/23 09:57:15;;;;;;;0.88;0.20;;;6.50;99.90;;;;;;4913610;29;20146;-67
2023/12/23 09:59:54;;;;;;;0.20;0.20;;;6.50;99.90;;;;;;4913379;29;20072;-67
2023/12/23 10:02:26;;;;;;;0.40;0.15;;;6.50;99.90;;;;;;4909209;29;20072;-67
2023/12/23 10:04:57;;;;;;;0.80;0.20;;;6.60;99.90;;;;;;4912075;29;20046;-68
2023/12/23 10:07:25;;;;;;;0.22;0.22;;;6.60;99.90;;;;;;4912678;29;20123;-67
2023/12/23 10:09:58;;;;;;;0.98;0.43;;;6.60;99.90;;;;;;4906567;29;20044;-67
2023/12/23 10:12:30;;;;;;;0.22;0.20;;;6.60;99.90;;;;;;4913180;29;20048;-68
2023/12/23 10:15:02;;;;;;;0.10;0.10;;;6.60;99.90;;;;;;4912190;29;20051;-67
2023/12/23 10:17:31;;;;;;;0.73;0.10;;;6.60;99.90;;;;;;4914197;29;20048;-67
2023/12/23 10:20:03;;;;;;;0.17;0.10;;;6.60;99.90;;;;;;4909713;29;20048;-67
2023/12/23 10:22:35;;;;;;;0.10;0.10;;;6.60;99.90;;;;;;4912268;29;20576;-67
2023/12/23 10:25:07;;;;;;;0.20;0.20;;;6.60;99.90;;;;;;4912679;29;20052;-67
2023/12/23 10:27:43;;;;;;;0.30;0.17;;;6.60;99.90;;;;;;4914715;29;20131;-67
2023/12/23 10:30:11;;;;;;;0.43;0.20;;;6.50;99.90;;;;;;4912542;29;20544;-67
2023/12/23 10:32:47;;;;;;;0.38;0.20;;;6.50;99.90;;;;;;4904583;29;20429;-67
2023/12/23 10:35:16;;;;;;;0.20;0.20;;;6.50;99.90;;;;;;4912848;29;20454;-67
2023/12/23 10:37:53;;;;;;;0.25;0.20;;;6.50;99.90;;;;;;4912090;29;20079;-67
2023/12/23 10:40:25;;;;;;;0.22;0.17;;;6.50;99.90;;;;;;4911872;29;20047;-67
2023/12/23 10:43:00;;;;;;;0.30;0.10;;;6.50;99.90;;;;;;4913252;29;20063;-67
2023/12/23 10:45:32;;;;;;;0.40;0.20;;;6.60;99.90;;;;;;4919015;29;20032;-67
2023/12/23 10:48:06;;;;;;;0.45;0.30;;;6.60;99.90;;;;;;4912725;29;20068;-67
2023/12/23 10:50:40;;;;;;;0.20;0.20;;;6.60;99.90;;;;;;4912515;29;20052;-67
2023/12/23 10:53:09;;;;;;;0.10;0.10;;;6.60;99.90;;;;;;4911324;29;20127;-67
2023/12/23 10:55:39;;;;;;;0.68;0.20;;;6.60;99.90;;;;;;4926068;29;20395;-67
2023/12/23 10:58:13;;;;;;;0.22;0.20;;;6.60;99.90;;;;;;4908486;29;20437;-67
2023/12/23 11:00:46;;;;;;;1.25;0.20;;;6.60;99.90;;;;;;4912844;29;20048;-67
2023/12/23 11:03:19;;;;;;;1.95;0.15;;;6.60;99.90;;;;;;4910662;29;20428;-67
2023/12/23 11:05:47;;;;;;;1.13;0.20;;;6.60;99.90;;;;;;4910731;29;20032;-66
2023/12/23 11:08:22;;;;;;;0.22;0.20;;;6.60;99.90;;;;;;4914689;29;20515;-67
2023/12/23 11:10:54;;;;;;;0.20;0.20;;;6.60;99.90;;;;;;4912062;29;20537;-67
2023/12/23 11:13:26;;;;;;;0.20;0.20;;;6.50;99.90;;;;;;4911257;29;20055;-67
2023/12/23 11:15:59;;;;;;;0.32;0.20;;;6.50;99.90;;;;;;4909137;29;20144;-67
2023/12/23 11:18:32;;;;;;;0.73;0.20;;;6.50;99.90;;;;;;4913542;29;20063;-67
2023/12/23 11:21:16;;;;;;;0.65;0.22;;;6.40;99.90;;;;;;4912064;29;20067;-67
2023/12/23 11:23:43;;;;;;;1.13;0.20;;;6.40;99.90;;;;;;4911822;29;20064;-67
2023/12/23 11:26:41;;;;;;;0.65;0.35;;;6.30;99.90;;;;;;4910800;29;20437;-67
2023/12/23 11:29:14;;;;;;;1.88;0.25;;;6.20;99.90;;;;;;4909953;29;20051;-67
2023/12/23 11:31:46;;;;;;;0.80;0.25;;;6.20;99.90;;;;;;4929352;29;20047;-67
2023/12/23 11:34:20;;;;;;;0.22;0.20;;;6.20;99.90;;;;;;4918104;29;20421;-67
2023/12/23 11:36:52;;;;;;;2.28;0.28;;;6.10;99.90;;;;;;4913977;29;20040;-67
2023/12/23 11:39:24;;;;;;;0.60;0.20;;;6.10;99.90;;;;;;4916366;29;20064;-67
2023/12/23 11:41:57;;;;;;;0.20;0.20;;;6.10;99.90;;;;;;4914469;29;20036;-66
2023/12/23 11:44:25;;;;;;;0.82;0.30;;;6.10;99.90;;;;;;4917170;29;20042;-67
2023/12/23 11:46:57;;;;;;;0.20;0.20;;;6.10;99.90;;;;;;4919075;29;20029;-67
2023/12/23 11:49:30;;;;;;;0.17;0.17;;;6.10;99.90;;;;;;4925876;29;20059;-66
2023/12/23 11:52:02;;;;;;;0.20;0.20;;;6.10;99.90;;;;;;4916147;29;20123;-67
2023/12/23 11:54:34;;;;;;;0.20;0.20;;;6.00;99.90;;;;;;4909149;29;20049;-67
2023/12/23 11:57:06;;;;;;;0.20;0.10;;;6.00;99.90;;;;;;4915061;29;20053;-66
2023/12/23 11:59:38;;;;;;;0.15;0.15;;;6.00;99.90;;;;;;4913359;29;20067;-67
2023/12/23 12:02:11;;;;;;;0.38;0.20;;;6.00;99.90;;;;;;4916416;29;20048;-67
2023/12/23 12:04:38;;;;;;;0.25;0.20;;;6.00;99.90;;;;;;4916346;29;20073;-67
2023/12/23 12:07:10;;;;;;;0.13;0.10;;;6.00;99.90;;;;;;4916066;29;20130;-66
2023/12/23 12:09:43;;;;;;;0.20;0.20;;;6.10;99.90;;;;;;4916211;29;20052;-66
2023/12/23 12:12:14;;;;;;;0.28;0.20;;;6.10;99.90;;;;;;4916516;29;20097;-66
2023/12/23 12:14:46;;;;;;;0.10;0.10;;;6.10;99.90;;;;;;4914602;29;20071;-67
2023/12/23 12:17:18;;;;;;;0.45;0.30;;;6.10;99.90;;;;;;4899561;29;20059;-67
2023/12/23 12:19:50;;;;;;;0.45;0.20;;;6.10;99.90;;;;;;4915372;29;20048;-66
2023/12/23 12:22:22;;;;;;;0.22;0.20;;;6.10;99.90;;;;;;4915361;29;20131;-66
2023/12/23 12:24:54;;;;;;;0.40;0.20;;;6.10;99.90;;;;;;4909621;29;20032;-66
2023/12/23 12:27:26;;;;;;;0.50;0.20;;;6.20;99.90;;;;;;4914709;29;20130;-66
2023/12/23 12:29:58;;;;;;;0.20;0.20;;;6.20;99.90;;;;;;4915508;29;20421;-67
2023/12/23 12:32:30;;;;;;;0.20;0.20;;;6.20;99.90;;;;;;4917004;29;20052;-66
2023/12/23 12:35:03;;;;;;;0.50;0.20;;;6.20;99.90;;;;;;4915095;29;20044;-66
2023/12/23 12:37:30;;;;;;;0.25;0.20;;;6.20;99.90;;;;;;4896798;29;20166;-66
2023/12/23 12:40:02;;;;;;;0.55;0.20;;;6.30;99.90;;;;;;4911432;29;20051;-67
2023/12/23 12:42:29;;;;;;;0.10;0.10;;;6.30;99.90;;;;;;4915132;29;20122;-67
2023/12/23 12:45:02;;;;;;;0.10;0.10;;;6.30;99.90;;;;;;4919141;29;20040;-67
2023/12/23 12:47:29;;;;;;;0.40;0.20;;;6.30;99.90;;;;;;4916059;29;20050;-66
2023/12/23 12:50:01;;;;;;;0.20;0.20;;;6.30;99.90;;;;;;4913022;29;20044;-67
2023/12/23 12:52:35;;;;;;;1.77;0.30;;;6.30;99.90;;;;;;4915672;29;20056;-66
2023/12/23 12:55:07;;;;;;;0.50;0.30;;;6.40;99.90;;;;;;4911715;29;20126;-66
2023/12/23 12:57:39;;;;;;;0.20;0.20;;;6.40;99.90;;;;;;4928583;29;20059;-66
2023/12/23 13:00:07;;;;;;;1.27;0.30;;;6.30;99.90;;;;;;4915355;29;20054;-67
2023/12/23 13:02:39;;;;;;;0.38;0.20;;;6.30;99.90;;;;;;4915936;29;20040;-67
2023/12/23 13:05:06;;;;;;;0.20;0.20;;;6.30;99.90;;;;;;4913948;29;20051;-67
2023/12/23 13:07:39;;;;;;;0.30;0.20;;;6.40;99.90;;;;;;4898724;29;20145;-67
2023/12/23 13:10:06;;;;;;;0.15;0.15;;;6.40;99.90;;;;;;4914339;29;20044;-67
2023/12/23 13:12:38;;;;;;;0.38;0.20;;;6.40;99.90;;;;;;4914661;29;20047;-66
2023/12/23 13:15:10;;;;;;;0.30;0.20;;;6.50;99.90;;;;;;4913538;29;20056;-67
2023/12/23 13:17:37;;;;;;;0.20;0.20;;;6.40;99.90;;;;;;4914540;29;20614;-67
2023/12/23 13:20:11;;;;;;;0.68;0.32;;;6.50;99.90;;;;;;4929233;29;20060;-67